Brice, Ohio
Current Conditions -  °F | °C
As of 12:51 PM on Monday 24 Nov 2014 (Local Time) from KCMH Reporting Station
Broken Clouds Broken Clouds  
Wind Chill: 58°   Ceiling: 4600
Heat Index: 58°   Visibility: 8mi
Dew Point: 47°   Wind: 26mph
Humidity: 67%   Direction: 240°WSW
Pressure: 29.44"   Gusts: 47mph
Location:  39.92°N, 82.83°W
Report Text: KCMH 241751Z 24023G41KT 8SM SCT033 BKN046 14/08 A2944 RMK AO2 PK WND 26046/1706 RAE20 SLP966 P0002 60002 T01440083 10178 20128 53033 $
Loading
Personal Weather Stations






























Interactive Weather Map New forecast layout! Learn more

10-Day Weather Forecast

Advertisements
Track Severe Weather on mobile